This is the latest recevied weather packets stored in our database for station/object AB8XS. If no packets are shown the sender has not sent any weather packets the latest 10 day(s).
| Time | Temp. | Humidity | Pressure | Rain* | Wind** | Luminosity | Snow |
|---|---|---|---|---|---|---|---|
| 1777534831 | 5.56° C | 88% | 1014.5 hPa | 0 mm | - | 0 W/m² | - |
| 1777534545 | 5.56° C | 88% | 1014.5 hPa | 0 mm | - | 0 W/m² | - |
| 1777532131 | 5.56° C | 87% | 1014.6 hPa | 0 mm | - | 0 W/m² | - |
| 1777531231 | 5.56° C | 86% | 1014.6 hPa | 0 mm | - | 0 W/m² | - |
| 1777530931 | 5.56° C | 86% | 1014.6 hPa | 0 mm | - | 0 W/m² | - |
| 1777528230 | 5.56° C | 85% | 1014.5 hPa | 0 mm | - | 0 W/m² | - |
| 1777527931 | 5.56° C | 85% | 1014.5 hPa | 0 mm | - | 0 W/m² | - |
| 1777527331 | 5° C | 86% | 1014.6 hPa | 0 mm | - | 0 W/m² | - |
| 1777527031 | 5° C | 86% | 1014.5 hPa | 0 mm | - | 0 W/m² | - |
| 1777509930 | 6.67° C | 89% | 1013.3 hPa | 0 mm | - | 0 W/m² | - |
| 1777509646 | 6.67° C | 89% | 1013.3 hPa | 0 mm | - | 0 W/m² | - |
| 1777509331 | 6.67° C | 89% | 1013.3 hPa | 0 mm | - | 0 W/m² | - |
| 1777509031 | 6.67° C | 89% | 1013.3 hPa | 0 mm | - | 1 W/m² | - |
| 1777508745 | 6.67° C | 89% | 1013.2 hPa | 0 mm | - | 5 W/m² | - |
| 1777507531 | 7.22° C | 89% | 1013 hPa | 0 mm | - | 7 W/m² | - |
| 1777506960 | 7.22° C | 88% | 1012.9 hPa | 0 mm | - | 11 W/m² | - |
| 1777504531 | 7.22° C | 88% | 1012.6 hPa | 0.25 mm | - | 21 W/m² | - |
| 1777500031 | 7.78° C | 88% | 1012.3 hPa | 0.25 mm | - | 37 W/m² | - |
| 1777498230 | 8.33° C | 92% | 1012 hPa | 0.25 mm | - | 64 W/m² | - |
| 1777497030 | 8.33° C | 93% | 1011.9 hPa | 0.25 mm | - | 84 W/m² | - |
| 1777496731 | 8.33° C | 93% | 1011.9 hPa | 0.25 mm | - | 94 W/m² | - |
| 1777496131 | 7.78° C | 94% | 1011.9 hPa | 0.25 mm | - | 130 W/m² | - |
| 1777494330 | 7.78° C | 94% | 1011.9 hPa | 0.51 mm | - | 178 W/m² | - |
| 1777494031 | 7.78° C | 94% | 1011.9 hPa | 0.25 mm | - | 150 W/m² | - |
| 1777493145 | 7.78° C | 95% | 1011.9 hPa | 0.25 mm | - | 62 W/m² | - |
* Rain latest hour (hover to see other rain measurements)
** Current wind speed in m/s (hover to see current wind gust speed)